createdAt,value
2023-04-26T00:00:16.109Z,2.23
2023-04-26T00:01:16.150Z,2.18
2023-04-26T00:02:16.302Z,2.15
2023-04-26T00:03:16.240Z,2.38
2023-04-26T00:04:16.431Z,2.49
2023-04-26T00:05:16.304Z,2.49
2023-04-26T00:06:16.148Z,2.25
2023-04-26T00:07:16.209Z,2.13
2023-04-26T00:08:16.197Z,2.05
2023-04-26T00:09:16.167Z,2.06
2023-04-26T00:10:16.190Z,2.24
2023-04-26T00:11:16.183Z,2.25
2023-04-26T00:12:16.217Z,2.32
2023-04-26T00:13:16.180Z,2.15
2023-04-26T00:14:16.204Z,2.19
2023-04-26T00:15:16.206Z,2.31
2023-04-26T00:16:16.331Z,2.29
2023-04-26T00:17:16.222Z,2.47
2023-04-26T00:18:16.351Z,2.51
2023-04-26T00:19:16.228Z,2.53
2023-04-26T00:20:16.254Z,2.63
2023-04-26T00:21:16.265Z,2.39
2023-04-26T00:22:16.259Z,2.37
2023-04-26T00:23:16.266Z,2.05
2023-04-26T00:24:16.347Z,2.12
2023-04-26T00:25:16.380Z,2.14
2023-04-26T00:26:16.371Z,2.04
2023-04-26T00:27:16.418Z,2.21
2023-04-26T00:28:16.468Z,2.12
2023-04-26T00:29:16.487Z,2.20
2023-04-26T00:30:16.556Z,2.31
2023-04-26T00:31:16.568Z,2.46
2023-04-26T00:32:16.567Z,2.50
2023-04-26T00:33:16.572Z,2.64
2023-04-26T00:34:16.626Z,2.80
2023-04-26T00:35:16.644Z,3.03
2023-04-26T00:36:16.726Z,3.23
2023-04-26T00:37:16.675Z,3.47
2023-04-26T00:38:16.743Z,3.69
2023-04-26T00:39:16.769Z,3.93
2023-04-26T00:40:16.808Z,4.47
2023-04-26T00:41:16.871Z,4.49
2023-04-26T00:42:16.853Z,5.00
2023-04-26T00:43:16.949Z,5.16
2023-04-26T00:44:16.967Z,5.40
2023-04-26T00:45:17.029Z,5.72
2023-04-26T00:46:17.258Z,5.97
2023-04-26T00:47:17.142Z,7.03
2023-04-26T00:48:17.225Z,7.62
2023-04-26T00:49:17.302Z,8.45
2023-04-26T00:50:17.382Z,9.48
2023-04-26T00:51:17.404Z,9.14
2023-04-26T00:52:17.410Z,9.00
2023-04-26T00:53:17.491Z,7.90
2023-04-26T00:54:17.542Z,7.59
2023-04-26T00:55:17.611Z,6.94
2023-04-26T00:56:17.654Z,6.71
2023-04-26T00:57:17.701Z,6.67
2023-04-26T00:58:17.790Z,6.79
2023-04-26T00:59:17.799Z,6.06
2023-04-26T01:00:17.825Z,5.66
2023-04-26T01:01:17.938Z,6.14
2023-04-26T01:02:18.003Z,5.75
2023-04-26T01:03:18.109Z,5.91
2023-04-26T01:04:18.471Z,6.10
2023-04-26T01:05:18.046Z,6.31
2023-04-26T01:06:18.088Z,5.95
2023-04-26T01:07:18.136Z,5.64
2023-04-26T01:08:18.195Z,5.38
2023-04-26T01:09:18.199Z,5.12
2023-04-26T01:10:18.264Z,5.24
2023-04-26T01:11:18.323Z,5.78
2023-04-26T01:12:18.336Z,5.95
2023-04-26T01:13:18.362Z,5.82
2023-04-26T01:14:18.426Z,6.10
2023-04-26T01:15:18.468Z,6.16
2023-04-26T01:16:18.507Z,5.88
2023-04-26T01:17:18.497Z,5.87
2023-04-26T01:18:18.556Z,6.25
2023-04-26T01:19:18.619Z,6.37
2023-04-26T01:20:18.687Z,6.21
2023-04-26T01:21:18.687Z,6.36
2023-04-26T01:22:18.702Z,6.69
2023-04-26T01:23:18.754Z,6.36
2023-04-26T01:24:18.784Z,6.72
2023-04-26T01:25:18.801Z,6.70
2023-04-26T01:26:18.857Z,7.15
2023-04-26T01:27:18.866Z,7.10
2023-04-26T01:28:18.901Z,7.09
2023-04-26T01:29:18.948Z,6.98
2023-04-26T01:30:18.978Z,7.02
2023-04-26T01:31:19.006Z,7.07
2023-04-26T01:32:19.080Z,7.13
2023-04-26T01:33:19.071Z,7.17
2023-04-26T01:34:19.108Z,7.25
2023-04-26T01:35:19.114Z,7.23
2023-04-26T01:36:19.160Z,6.98
2023-04-26T01:37:19.160Z,7.37
2023-04-26T01:38:19.197Z,7.22
2023-04-26T01:39:19.211Z,7.07
2023-04-26T01:40:19.230Z,7.34
2023-04-26T01:41:19.250Z,7.23
2023-04-26T01:42:19.303Z,7.63
2023-04-26T01:43:19.286Z,6.76
2023-04-26T01:44:19.307Z,6.72
2023-04-26T01:45:19.370Z,6.90
2023-04-26T01:46:19.413Z,6.70
2023-04-26T01:47:19.378Z,6.66
2023-04-26T01:48:19.422Z,7.08
2023-04-26T01:49:19.441Z,6.90
2023-04-26T01:50:19.419Z,7.09
2023-04-26T01:51:19.431Z,7.05
2023-04-26T01:52:19.447Z,6.74
2023-04-26T01:53:19.494Z,6.64
2023-04-26T01:54:19.531Z,6.93
2023-04-26T01:55:19.538Z,6.95
2023-04-26T01:56:19.598Z,6.65
2023-04-26T01:57:19.623Z,6.35
2023-04-26T01:58:19.643Z,6.20
2023-04-26T01:59:19.681Z,6.01
2023-04-26T02:00:19.708Z,6.28
2023-04-26T02:01:19.730Z,6.71
2023-04-26T02:02:19.727Z,6.73
2023-04-26T02:03:19.870Z,6.55
2023-04-26T02:04:19.760Z,6.56
2023-04-26T02:05:19.931Z,6.70
2023-04-26T02:06:19.838Z,6.81
2023-04-26T02:07:19.825Z,6.74
2023-04-26T02:08:19.853Z,6.97
2023-04-26T02:09:19.907Z,7.01
2023-04-26T02:10:19.944Z,6.87
2023-04-26T02:11:19.924Z,6.78
2023-04-26T02:12:19.962Z,6.69
2023-04-26T02:13:19.963Z,6.63
2023-04-26T02:14:20.021Z,6.99
2023-04-26T02:15:19.996Z,6.33
2023-04-26T02:16:20.114Z,6.25
2023-04-26T02:17:20.016Z,6.49
2023-04-26T02:18:20.050Z,6.79
2023-04-26T02:19:20.040Z,6.77
2023-04-26T02:20:20.072Z,6.68
2023-04-26T02:21:20.075Z,6.67
2023-04-26T02:22:20.091Z,6.85
2023-04-26T02:23:20.145Z,6.77
2023-04-26T02:24:20.145Z,6.33
2023-04-26T02:25:20.147Z,6.44
2023-04-26T02:26:20.156Z,6.44
2023-04-26T02:27:20.188Z,6.86
2023-04-26T02:28:20.198Z,7.04
2023-04-26T02:29:29.489Z,6.68
2023-04-26T02:30:21.166Z,6.70
2023-04-26T02:31:22.811Z,6.75
2023-04-26T02:32:20.168Z,6.82
2023-04-26T02:33:20.155Z,6.95
2023-04-26T02:34:20.166Z,7.15
2023-04-26T02:35:20.111Z,7.00
2023-04-26T02:36:20.157Z,6.88
2023-04-26T02:37:20.091Z,7.08
2023-04-26T02:38:20.109Z,7.26
2023-04-26T02:39:20.127Z,7.27
2023-04-26T02:40:20.103Z,7.11
2023-04-26T02:41:20.100Z,7.18
2023-04-26T02:42:20.088Z,6.90
2023-04-26T02:43:20.075Z,6.74
2023-04-26T02:44:20.059Z,6.38
2023-04-26T02:45:20.037Z,6.73
2023-04-26T02:46:20.071Z,6.75
2023-04-26T02:47:20.021Z,6.65
2023-04-26T02:48:19.993Z,6.40
2023-04-26T02:49:20.020Z,6.11
2023-04-26T02:50:19.998Z,6.17
2023-04-26T02:51:19.988Z,6.45
2023-04-26T02:52:19.989Z,6.20
2023-04-26T02:53:19.994Z,6.41
2023-04-26T02:54:19.960Z,6.40
2023-04-26T02:55:19.982Z,6.46
2023-04-26T02:56:19.909Z,6.60
2023-04-26T02:57:19.918Z,6.62
2023-04-26T02:58:20.001Z,6.29
2023-04-26T02:59:19.875Z,6.21
2023-04-26T03:00:19.883Z,6.32
2023-04-26T03:01:19.887Z,6.15
2023-04-26T03:02:19.914Z,6.06
2023-04-26T03:03:20.074Z,6.07
2023-04-26T03:04:20.066Z,5.90
2023-04-26T03:05:19.808Z,5.59
2023-04-26T03:06:19.893Z,5.53
2023-04-26T03:07:19.814Z,5.67
2023-04-26T03:08:19.789Z,5.64
2023-04-26T03:09:19.771Z,5.39
2023-04-26T03:10:19.746Z,5.71
2023-04-26T03:11:19.768Z,5.90
2023-04-26T03:12:19.726Z,5.93
2023-04-26T03:13:19.712Z,5.53
2023-04-26T03:14:19.712Z,5.57
2023-04-26T03:15:19.722Z,5.62
2023-04-26T03:16:19.703Z,5.62
2023-04-26T03:17:19.695Z,5.16
2023-04-26T03:18:19.646Z,5.16
2023-04-26T03:19:19.656Z,5.23
2023-04-26T03:20:19.640Z,5.45
2023-04-26T03:21:19.607Z,5.51
2023-04-26T03:22:19.643Z,5.32
2023-04-26T03:23:19.619Z,5.33
2023-04-26T03:24:19.604Z,5.10
2023-04-26T03:25:19.582Z,5.32
2023-04-26T03:26:19.601Z,5.06
2023-04-26T03:27:19.572Z,4.99
2023-04-26T03:28:19.526Z,4.98
2023-04-26T03:29:19.533Z,4.94
2023-04-26T03:30:19.640Z,5.17
2023-04-26T03:31:19.585Z,4.97
2023-04-26T03:32:19.508Z,5.23
2023-04-26T03:33:19.504Z,5.17
2023-04-26T03:34:19.486Z,5.28
2023-04-26T03:35:19.477Z,5.31
2023-04-26T03:36:19.469Z,5.24
2023-04-26T03:37:19.454Z,5.51
2023-04-26T03:38:19.446Z,5.18
2023-04-26T03:39:19.432Z,5.36
2023-04-26T03:40:19.425Z,5.32
2023-04-26T03:41:19.434Z,5.11
2023-04-26T03:42:19.409Z,5.11
2023-04-26T03:43:19.409Z,5.07
2023-04-26T03:44:19.399Z,5.03
2023-04-26T03:45:19.376Z,5.02
2023-04-26T03:46:19.474Z,5.27
2023-04-26T03:47:19.366Z,5.22
2023-04-26T03:48:19.383Z,4.98
2023-04-26T03:49:19.347Z,5.02
2023-04-26T03:50:19.329Z,4.98
2023-04-26T03:51:19.340Z,5.15
2023-04-26T03:52:19.344Z,5.23
2023-04-26T03:53:19.330Z,5.31
2023-04-26T03:54:19.340Z,5.26
2023-04-26T03:55:19.308Z,4.76
2023-04-26T03:56:19.268Z,4.98
2023-04-26T03:57:19.324Z,5.10
2023-04-26T03:58:19.279Z,4.96
2023-04-26T03:59:19.226Z,5.04
2023-04-26T04:00:19.231Z,4.92
2023-04-26T04:01:19.203Z,4.82
2023-04-26T04:02:19.261Z,4.97
2023-04-26T04:03:19.334Z,5.02
2023-04-26T04:04:19.536Z,4.96
2023-04-26T04:05:19.213Z,4.97
2023-04-26T04:06:19.187Z,5.24
2023-04-26T04:07:19.202Z,5.07
2023-04-26T04:08:19.145Z,4.91
2023-04-26T04:09:19.148Z,4.78
2023-04-26T04:10:19.150Z,4.47
2023-04-26T04:11:19.145Z,4.89
2023-04-26T04:12:19.140Z,4.81
2023-04-26T04:13:19.106Z,4.79
2023-04-26T04:14:19.118Z,4.96
2023-04-26T04:15:19.315Z,4.95
2023-04-26T04:16:19.201Z,4.89
2023-04-26T04:17:19.160Z,4.79
2023-04-26T04:18:19.171Z,4.69
2023-04-26T04:19:19.185Z,4.69
2023-04-26T04:20:19.179Z,4.84
2023-04-26T04:21:19.174Z,4.75
2023-04-26T04:22:19.180Z,4.88
2023-04-26T04:23:19.198Z,4.92
2023-04-26T04:24:19.215Z,4.95
2023-04-26T04:25:19.195Z,4.86
2023-04-26T04:26:19.245Z,4.59
2023-04-26T04:27:19.241Z,4.61
2023-04-26T04:28:19.212Z,4.75
2023-04-26T04:29:19.237Z,4.77
2023-04-26T04:30:19.251Z,4.55
2023-04-26T04:31:19.357Z,4.70
2023-04-26T04:32:19.278Z,4.83
2023-04-26T04:33:19.320Z,4.71
2023-04-26T04:34:19.304Z,4.39
2023-04-26T04:35:19.309Z,4.20
2023-04-26T04:36:19.297Z,4.30
2023-04-26T04:37:19.320Z,4.36
2023-04-26T04:38:19.329Z,4.59
2023-04-26T04:39:19.346Z,4.52
2023-04-26T04:40:19.365Z,4.43
2023-04-26T04:41:19.346Z,4.49
2023-04-26T04:42:19.403Z,4.46
2023-04-26T04:43:19.385Z,4.36
2023-04-26T04:44:19.387Z,4.11
2023-04-26T04:45:19.390Z,4.27
2023-04-26T04:46:19.420Z,4.35
2023-04-26T04:47:19.397Z,4.35
2023-04-26T04:48:19.425Z,4.33
2023-04-26T04:49:19.480Z,4.52
2023-04-26T04:50:19.484Z,4.61
2023-04-26T04:51:19.522Z,4.69
2023-04-26T04:52:19.538Z,4.52
2023-04-26T04:53:19.556Z,4.64
2023-04-26T04:54:19.559Z,5.02
2023-04-26T04:55:19.592Z,4.58
2023-04-26T04:56:19.598Z,4.82
2023-04-26T04:57:19.582Z,4.73
2023-04-26T04:58:19.592Z,4.83
2023-04-26T04:59:19.659Z,4.71
2023-04-26T05:00:26.681Z,4.61
2023-04-26T05:01:19.625Z,4.61
2023-04-26T05:02:19.877Z,4.62
2023-04-26T05:03:19.755Z,4.64
2023-04-26T05:04:19.913Z,4.64
2023-04-26T05:05:19.602Z,4.39
2023-04-26T05:06:19.564Z,4.59
2023-04-26T05:07:19.560Z,4.48
2023-04-26T05:08:19.548Z,4.62
2023-04-26T05:09:19.526Z,4.58
2023-04-26T05:10:19.558Z,4.71
2023-04-26T05:11:19.517Z,4.96
2023-04-26T05:12:19.564Z,4.76
2023-04-26T05:13:19.488Z,4.15
2023-04-26T05:14:19.505Z,2.26
2023-04-26T05:15:19.514Z,1.61
2023-04-26T05:16:19.559Z,1.45
2023-04-26T05:17:19.534Z,1.41
2023-04-26T05:18:19.542Z,1.41
2023-04-26T05:19:19.542Z,1.37
2023-04-26T05:20:19.565Z,1.54
2023-04-26T05:21:19.573Z,5.86
2023-04-26T05:22:19.632Z,28.90
2023-04-26T05:23:19.617Z,20.93
2023-04-26T05:24:19.633Z,10.83
2023-04-26T05:25:20.921Z,6.44
2023-04-26T05:26:19.972Z,4.11
2023-04-26T05:27:20.043Z,2.70
2023-04-26T05:28:20.130Z,2.30
2023-04-26T05:29:20.223Z,2.14
2023-04-26T05:30:20.254Z,2.22
2023-04-26T05:31:20.338Z,2.56
2023-04-26T05:32:20.828Z,3.42
2023-04-26T05:33:20.533Z,5.58
2023-04-26T05:34:20.570Z,6.82
2023-04-26T05:35:20.603Z,7.34
2023-04-26T05:36:20.664Z,8.44
2023-04-26T05:37:20.735Z,10.76
2023-04-26T05:38:20.864Z,12.37
2023-04-26T05:39:20.848Z,11.40
2023-04-26T05:40:20.873Z,10.21
2023-04-26T05:41:20.938Z,10.62
2023-04-26T05:42:21.362Z,10.81
2023-04-26T05:43:20.998Z,9.70
2023-04-26T05:44:21.066Z,8.91
2023-04-26T05:45:21.123Z,9.81
2023-04-26T05:46:28.279Z,10.56
2023-04-26T05:47:21.396Z,10.65
2023-04-26T05:48:21.202Z,11.21
2023-04-26T05:49:21.233Z,12.77
2023-04-26T05:50:21.292Z,15.42
2023-04-26T05:51:21.292Z,19.56
2023-04-26T05:52:21.296Z,21.06
2023-04-26T05:53:21.312Z,22.94
2023-04-26T05:54:21.316Z,24.09
2023-04-26T05:55:21.335Z,25.75
2023-04-26T05:56:21.315Z,26.50
2023-04-26T05:57:21.380Z,25.90
2023-04-26T05:58:21.313Z,27.07
2023-04-26T05:59:21.297Z,27.56
2023-04-26T06:00:21.311Z,26.74
2023-04-26T06:01:21.316Z,27.31
2023-04-26T06:02:21.361Z,27.64
2023-04-26T06:03:21.626Z,27.65
2023-04-26T06:04:21.485Z,26.79
2023-04-26T06:05:21.387Z,28.16
2023-04-26T06:06:21.250Z,30.36
2023-04-26T06:07:21.275Z,31.38
2023-04-26T06:08:21.216Z,31.83
2023-04-26T06:09:21.243Z,31.83
2023-04-26T06:10:21.221Z,33.76
2023-04-26T06:11:21.195Z,32.18
2023-04-26T06:12:21.196Z,35.16
2023-04-26T06:13:21.155Z,36.80
2023-04-26T06:14:29.954Z,35.94
2023-04-26T06:15:22.137Z,35.95
2023-04-26T06:16:21.139Z,36.08
2023-04-26T06:17:21.389Z,37.04
2023-04-26T06:18:21.060Z,37.48
2023-04-26T06:19:21.056Z,38.84
2023-04-26T06:20:21.065Z,38.79
2023-04-26T06:21:21.008Z,39.12
2023-04-26T06:22:21.029Z,40.08
2023-04-26T06:23:21.012Z,43.83
2023-04-26T06:24:20.994Z,47.45
2023-04-26T06:25:20.958Z,46.41
2023-04-26T06:26:20.961Z,50.03
2023-04-26T06:27:21.377Z,45.20
2023-04-26T06:28:20.971Z,46.40
2023-04-26T06:29:20.981Z,44.42
2023-04-26T06:30:20.985Z,41.76
2023-04-26T06:31:21.004Z,39.11
2023-04-26T06:32:20.996Z,40.33
2023-04-26T06:33:20.970Z,38.55
2023-04-26T06:34:20.964Z,38.81
2023-04-26T06:35:21.218Z,40.29
2023-04-26T06:36:20.970Z,39.91
2023-04-26T06:37:21.398Z,40.89
2023-04-26T06:38:21.022Z,45.00
2023-04-26T06:39:21.001Z,52.20
2023-04-26T06:40:21.013Z,21.32
2023-04-26T06:41:21.054Z,9.98
2023-04-26T06:42:21.152Z,9.80
2023-04-26T06:43:21.102Z,11.43
2023-04-26T06:44:21.142Z,13.12
2023-04-26T06:45:21.226Z,14.61
2023-04-26T06:46:21.267Z,14.42
2023-04-26T06:47:21.429Z,13.00
2023-04-26T06:48:21.273Z,10.73
2023-04-26T06:49:21.261Z,8.84
2023-04-26T06:50:21.288Z,7.50
2023-04-26T06:51:21.259Z,9.46
2023-04-26T06:52:21.919Z,11.01
2023-04-26T06:53:23.187Z,13.18
2023-04-26T06:54:21.310Z,15.30
2023-04-26T06:55:21.361Z,18.18
2023-04-26T06:56:21.363Z,19.86
2023-04-26T06:57:21.403Z,15.74
2023-04-26T06:58:21.466Z,11.38
2023-04-26T06:59:21.453Z,9.89
2023-04-26T07:00:21.416Z,7.94
2023-04-26T07:01:21.435Z,6.35
2023-04-26T07:02:22.062Z,6.09
2023-04-26T07:03:21.502Z,5.48
2023-04-26T07:04:21.627Z,5.73
2023-04-26T07:06:21.468Z,4.99
2023-04-26T07:07:21.528Z,5.25
2023-04-26T07:08:21.502Z,5.32
2023-04-26T07:09:21.528Z,3.58
2023-04-26T07:10:22.107Z,2.47
2023-04-26T07:11:22.828Z,1.94
2023-04-26T07:12:21.554Z,1.73
2023-04-26T07:13:21.677Z,1.77
2023-04-26T07:14:21.495Z,2.20
2023-04-26T07:15:21.469Z,1.48
2023-04-26T07:16:21.493Z,1.43
2023-04-26T07:17:21.473Z,1.52
2023-04-26T07:18:21.450Z,1.65
2023-04-26T07:19:21.423Z,1.31
2023-04-26T07:20:21.430Z,1.24
2023-04-26T07:21:21.395Z,0.81
2023-04-26T07:22:21.977Z,1.09
2023-04-26T07:23:21.522Z,1.58
2023-04-26T07:24:21.348Z,1.90
2023-04-26T07:25:21.360Z,1.84
2023-04-26T07:26:21.325Z,1.30
2023-04-26T07:27:21.331Z,0.94
2023-04-26T07:28:21.346Z,0.72
2023-04-26T07:29:21.286Z,0.70
2023-04-26T07:30:21.263Z,0.61
2023-04-26T07:31:21.265Z,0.56
2023-04-26T07:32:21.469Z,0.51
2023-04-26T07:33:21.294Z,0.56
2023-04-26T07:34:21.220Z,0.80
2023-04-26T07:35:21.233Z,1.06
2023-04-26T07:36:23.082Z,1.20
2023-04-26T07:37:21.155Z,0.66
2023-04-26T07:38:21.183Z,0.40
2023-04-26T07:39:21.149Z,0.34
2023-04-26T07:40:21.134Z,0.34
2023-04-26T07:41:21.152Z,0.34
2023-04-26T07:42:21.127Z,0.34
2023-04-26T07:43:21.107Z,0.34
2023-04-26T07:44:21.146Z,0.34
2023-04-26T07:45:21.167Z,0.34
2023-04-26T07:46:21.315Z,0.43
2023-04-26T07:47:21.105Z,0.68
2023-04-26T07:48:21.103Z,0.99
2023-04-26T07:49:21.119Z,1.44
2023-04-26T07:50:21.095Z,1.98
2023-04-26T07:51:21.091Z,2.68
2023-04-26T07:52:21.062Z,3.34
2023-04-26T07:53:21.034Z,2.97
2023-04-26T07:54:21.007Z,2.32
2023-04-26T07:55:21.009Z,1.86
2023-04-26T07:56:20.988Z,1.83
2023-04-26T07:57:20.967Z,2.34
2023-04-26T07:58:20.972Z,1.51
2023-04-26T07:59:20.947Z,1.54
2023-04-26T08:00:20.952Z,2.20
2023-04-26T08:01:20.946Z,3.17
2023-04-26T08:02:25.081Z,3.84
2023-04-26T08:03:22.092Z,3.87
2023-04-26T08:04:21.003Z,4.07
2023-04-26T08:05:21.059Z,4.80
2023-04-26T08:06:20.865Z,5.89
2023-04-26T08:07:20.793Z,8.36
2023-04-26T08:08:20.944Z,8.83
2023-04-26T08:09:20.759Z,10.02
2023-04-26T08:10:20.720Z,10.49
2023-04-26T08:11:20.783Z,11.73
2023-04-26T08:12:20.663Z,12.79
2023-04-26T08:13:20.662Z,13.21
2023-04-26T08:14:20.654Z,12.69
2023-04-26T08:15:20.601Z,11.83
2023-04-26T08:16:20.656Z,13.71
2023-04-26T08:17:20.537Z,13.68
2023-04-26T08:18:20.533Z,14.56
2023-04-26T08:19:20.611Z,14.37
2023-04-26T08:20:20.617Z,14.59
2023-04-26T08:21:20.630Z,14.67
2023-04-26T08:22:20.678Z,16.16
2023-04-26T08:23:20.997Z,17.71
2023-04-26T08:24:21.048Z,16.94
2023-04-26T08:25:20.711Z,17.18
2023-04-26T08:26:20.702Z,17.92
2023-04-26T08:27:20.728Z,17.74
2023-04-26T08:28:20.687Z,19.48
2023-04-26T08:29:20.728Z,19.28
2023-04-26T08:30:20.721Z,21.00
2023-04-26T08:31:20.796Z,20.61
2023-04-26T08:32:20.762Z,20.37
2023-04-26T08:33:20.960Z,6.70
2023-04-26T08:34:20.769Z,2.76
2023-04-26T08:35:20.789Z,2.03
2023-04-26T08:36:20.834Z,1.87
2023-04-26T08:37:20.834Z,1.65
2023-04-26T08:38:20.927Z,1.39
2023-04-26T08:39:20.855Z,1.53
2023-04-26T08:40:20.857Z,1.39
2023-04-26T08:41:20.881Z,1.33
2023-04-26T08:42:20.941Z,0.99
2023-04-26T08:43:20.931Z,0.82
2023-04-26T08:44:20.970Z,0.69
2023-04-26T08:45:20.954Z,0.66
2023-04-26T08:46:21.029Z,0.51
2023-04-26T08:47:21.001Z,0.51
2023-04-26T08:48:21.454Z,0.55
2023-04-26T08:49:21.079Z,0.63
2023-04-26T08:50:21.212Z,0.56
2023-04-26T08:51:21.154Z,0.53
2023-04-26T08:52:21.146Z,0.56
2023-04-26T08:53:21.464Z,0.50
2023-04-26T08:54:21.204Z,0.39
2023-04-26T08:55:21.269Z,0.45
2023-04-26T08:56:21.314Z,0.50
2023-04-26T08:57:21.324Z,0.59
2023-04-26T08:58:21.489Z,0.63
2023-04-26T08:59:21.416Z,0.63
2023-04-26T09:00:21.500Z,0.55
2023-04-26T09:01:21.569Z,0.50
2023-04-26T09:02:21.617Z,0.50
2023-04-26T09:03:21.676Z,0.50
2023-04-26T09:04:21.827Z,0.50
2023-04-26T09:05:21.705Z,0.50
2023-04-26T09:06:21.768Z,0.46
2023-04-26T09:07:21.803Z,0.48
2023-04-26T09:08:22.000Z,0.41
2023-04-26T09:09:21.879Z,0.45
2023-04-26T09:10:22.005Z,0.53
2023-04-26T09:11:21.991Z,0.63
2023-04-26T09:12:22.050Z,0.78
2023-04-26T09:13:22.089Z,0.73
2023-04-26T09:14:22.123Z,0.76
2023-04-26T09:15:22.174Z,0.86
2023-04-26T09:16:22.259Z,0.85
2023-04-26T09:17:22.245Z,0.76
2023-04-26T09:18:22.230Z,0.73
2023-04-26T09:19:22.297Z,0.67
2023-04-26T09:20:22.383Z,0.69
2023-04-26T09:21:22.350Z,0.81
2023-04-26T09:22:22.362Z,0.91
2023-04-26T09:23:22.477Z,1.08
2023-04-26T09:24:22.458Z,0.96
2023-04-26T09:25:24.345Z,0.90
2023-04-26T09:26:22.613Z,0.83
2023-04-26T09:27:22.535Z,0.90
2023-04-26T09:28:22.976Z,0.89
2023-04-26T09:29:22.605Z,0.64
2023-04-26T09:30:22.691Z,0.55
2023-04-26T09:31:22.801Z,0.55
2023-04-26T09:32:22.727Z,0.56
2023-04-26T09:33:22.811Z,0.50
2023-04-26T09:34:22.815Z,0.55
2023-04-26T09:35:22.847Z,0.62
2023-04-26T09:36:22.923Z,0.71
2023-04-26T09:37:22.947Z,0.83
2023-04-26T09:38:23.581Z,0.92
2023-04-26T09:39:23.075Z,0.86
2023-04-26T09:40:23.119Z,0.75
2023-04-26T09:41:23.132Z,0.65
2023-04-26T09:42:23.180Z,0.61
2023-04-26T09:43:23.251Z,0.51
2023-04-26T09:44:23.303Z,0.48
2023-04-26T09:45:23.360Z,0.44
2023-04-26T09:46:23.411Z,0.40
2023-04-26T09:47:23.390Z,0.41
2023-04-26T09:48:23.513Z,0.63
2023-04-26T09:49:23.413Z,0.90
2023-04-26T09:50:23.478Z,1.05
2023-04-26T09:51:23.473Z,0.95
2023-04-26T09:52:23.541Z,0.99
2023-04-26T09:53:23.507Z,1.17
2023-04-26T09:54:23.593Z,1.31
2023-04-26T09:55:34.200Z,1.84
2023-04-26T09:56:24.608Z,1.85
2023-04-26T09:57:23.703Z,1.85
2023-04-26T09:58:23.631Z,1.92
2023-04-26T09:59:24.055Z,2.07
2023-04-26T10:00:24.546Z,1.85
2023-04-26T10:01:23.623Z,1.58
2023-04-26T10:02:23.747Z,1.66
2023-04-26T10:03:23.841Z,1.77
2023-04-26T10:04:23.878Z,1.75
2023-04-26T10:05:23.823Z,1.54
2023-04-26T10:06:23.842Z,1.57
2023-04-26T10:07:23.897Z,1.74
2023-04-26T10:08:23.963Z,1.95
2023-04-26T10:09:24.027Z,1.91
2023-04-26T10:10:24.064Z,1.56
2023-04-26T10:11:24.100Z,1.60
2023-04-26T10:12:24.118Z,1.77
2023-04-26T10:13:24.202Z,1.93
2023-04-26T10:14:24.563Z,1.95
2023-04-26T10:15:24.313Z,2.02
2023-04-26T10:16:24.397Z,2.07
2023-04-26T10:17:24.441Z,2.08
2023-04-26T10:18:24.988Z,2.89
2023-04-26T10:19:24.441Z,4.70
2023-04-26T10:20:24.502Z,6.13
2023-04-26T10:21:24.487Z,8.39
2023-04-26T10:22:24.550Z,10.08
2023-04-26T10:23:24.527Z,13.30
2023-04-26T10:24:24.558Z,16.62
2023-04-26T10:25:24.597Z,23.16
2023-04-26T10:26:24.669Z,29.68
2023-04-26T10:27:24.608Z,40.10
2023-04-26T10:28:24.611Z,45.15
2023-04-26T10:29:24.607Z,45.96
2023-04-26T10:30:24.653Z,44.44
2023-04-26T10:31:24.718Z,48.43
2023-04-26T10:32:24.737Z,59.50
2023-04-26T10:33:24.786Z,58.14
2023-04-26T10:34:25.015Z,57.86
2023-04-26T10:35:24.847Z,62.25
2023-04-26T10:36:24.830Z,53.20
2023-04-26T10:37:24.887Z,51.21
2023-04-26T10:38:24.941Z,54.24
2023-04-26T10:39:25.002Z,51.39
2023-04-26T10:40:24.996Z,47.55
2023-04-26T10:41:25.026Z,29.71
2023-04-26T10:42:25.946Z,19.20
2023-04-26T10:43:26.162Z,11.86
2023-04-26T10:44:25.544Z,6.64
2023-04-26T10:45:25.089Z,3.60
2023-04-26T10:46:25.067Z,3.10
2023-04-26T10:47:25.112Z,4.07
2023-04-26T10:48:25.100Z,5.80
2023-04-26T10:49:26.625Z,7.84
2023-04-26T10:50:25.148Z,9.32
2023-04-26T10:51:25.103Z,9.27
2023-04-26T10:52:25.130Z,8.89
2023-04-26T10:53:25.145Z,7.89
2023-04-26T10:54:25.509Z,7.40
2023-04-26T10:55:25.531Z,7.21
2023-04-26T10:57:22.921Z,0.50
2023-04-26T10:58:22.744Z,0.50
2023-04-26T10:59:39.763Z,0.50
2023-04-26T11:00:23.764Z,0.50
2023-04-26T11:01:22.792Z,0.50
2023-04-26T11:02:22.873Z,0.50
2023-04-26T11:03:22.816Z,0.50
2023-04-26T11:04:22.893Z,0.50
2023-04-26T11:05:25.298Z,0.48
2023-04-26T11:06:22.982Z,0.52
2023-04-26T11:07:23.048Z,0.65
2023-04-26T11:08:23.071Z,0.72
2023-04-26T11:09:23.132Z,0.80
2023-04-26T11:10:23.238Z,0.88
2023-04-26T11:11:23.191Z,0.94
2023-04-26T11:12:23.199Z,1.09
2023-04-26T11:13:23.289Z,1.22
2023-04-26T11:14:23.355Z,1.25
2023-04-26T11:15:23.327Z,1.29
2023-04-26T11:16:23.450Z,1.33
2023-04-26T11:17:23.425Z,1.44
2023-04-26T11:18:23.485Z,1.50
2023-04-26T11:19:23.966Z,1.68
2023-04-26T11:20:23.545Z,1.82
2023-04-26T11:21:23.563Z,1.93
2023-04-26T11:22:23.590Z,2.04
2023-04-26T11:23:23.663Z,2.11
2023-04-26T11:24:23.659Z,2.16
2023-04-26T11:25:23.691Z,2.35
2023-04-26T11:26:23.726Z,2.34
2023-04-26T11:27:23.799Z,1.34
2023-04-26T11:28:23.774Z,1.19
2023-04-26T11:29:23.964Z,1.29
2023-04-26T11:30:23.961Z,0.97
2023-04-26T11:31:23.963Z,0.57
2023-04-26T11:32:23.970Z,0.51
2023-04-26T11:33:24.023Z,0.58
2023-04-26T11:34:24.492Z,0.59
2023-04-26T11:35:24.087Z,0.59
2023-04-26T11:36:24.146Z,0.56
2023-04-26T11:37:24.162Z,0.55
2023-04-26T11:38:24.189Z,0.55
2023-04-26T11:39:24.238Z,0.54
2023-04-26T11:40:24.265Z,0.55
2023-04-26T11:41:24.348Z,0.64
2023-04-26T11:42:24.399Z,0.67
2023-04-26T11:43:24.445Z,0.76
2023-04-26T11:44:24.444Z,0.84
2023-04-26T11:45:24.507Z,0.97
2023-04-26T11:46:24.585Z,0.93
2023-04-26T11:47:24.614Z,1.06
2023-04-26T11:48:24.684Z,1.09
2023-04-26T11:49:24.626Z,1.18
2023-04-26T11:50:24.672Z,1.22
2023-04-26T11:51:24.793Z,1.31
2023-04-26T11:52:24.778Z,1.61
2023-04-26T11:53:24.835Z,2.18
2023-04-26T11:54:24.900Z,2.06
2023-04-26T11:55:24.906Z,1.08
2023-04-26T11:56:24.947Z,0.62
2023-04-26T11:57:25.021Z,0.58
2023-04-26T11:58:25.074Z,0.48
2023-04-26T11:59:25.143Z,0.34
2023-04-26T12:00:25.190Z,0.34
2023-04-26T12:01:25.301Z,0.34
2023-04-26T12:02:25.423Z,0.34
2023-04-26T12:03:25.459Z,0.34
2023-04-26T12:04:26.994Z,0.34
2023-04-26T12:05:25.393Z,0.34
2023-04-26T12:06:25.367Z,0.34
2023-04-26T12:07:25.388Z,0.34
2023-04-26T12:08:25.398Z,0.34
2023-04-26T12:09:25.411Z,0.34
2023-04-26T12:10:25.406Z,0.36
2023-04-26T12:11:25.393Z,0.45
2023-04-26T12:12:25.399Z,0.50
2023-04-26T12:13:25.404Z,0.52
2023-04-26T12:14:25.434Z,2.72
2023-04-26T12:15:25.471Z,1.27
2023-04-26T12:16:27.070Z,1.09
2023-04-26T12:17:25.591Z,0.93
2023-04-26T12:18:25.442Z,0.67
2023-04-26T12:19:25.437Z,0.50
2023-04-26T12:20:25.476Z,0.46
2023-04-26T12:21:25.820Z,0.37
2023-04-26T12:22:25.492Z,0.48
2023-04-26T12:23:25.501Z,0.45
2023-04-26T12:24:25.512Z,0.44
2023-04-26T12:25:25.509Z,0.40
2023-04-26T12:26:25.523Z,0.44
2023-04-26T12:27:25.541Z,0.54
2023-04-26T12:28:25.541Z,0.64
2023-04-26T12:29:25.575Z,0.83
2023-04-26T12:30:25.544Z,1.01
2023-04-26T12:31:25.605Z,0.74
2023-04-26T12:32:25.552Z,0.65
2023-04-26T12:33:25.679Z,1.03
2023-04-26T12:34:25.606Z,1.01
2023-04-26T12:35:25.652Z,1.35
2023-04-26T12:36:25.641Z,1.74
2023-04-26T12:37:25.668Z,1.23
2023-04-26T12:38:25.702Z,1.11
2023-04-26T12:39:25.741Z,1.64
2023-04-26T12:40:25.788Z,1.57
2023-04-26T12:41:25.835Z,1.07
2023-04-26T12:42:25.839Z,0.81
2023-04-26T12:43:25.866Z,0.55
2023-04-26T12:44:25.868Z,0.50
2023-04-26T12:45:25.964Z,0.58
2023-04-26T12:46:26.015Z,0.57
2023-04-26T12:47:26.019Z,0.48
2023-04-26T12:48:26.036Z,0.46
2023-04-26T12:49:26.076Z,0.48
2023-04-26T12:50:26.215Z,0.50
2023-04-26T12:51:26.218Z,0.64
2023-04-26T12:52:26.181Z,0.60
2023-04-26T12:53:26.250Z,0.63
2023-04-26T12:54:26.304Z,0.81
2023-04-26T12:55:26.338Z,1.23
2023-04-26T12:56:26.410Z,1.21
2023-04-26T12:57:26.464Z,2.06
2023-04-26T12:58:26.516Z,3.22
2023-04-26T12:59:26.530Z,3.67
2023-04-26T13:00:26.580Z,4.61
2023-04-26T13:01:26.697Z,5.23
2023-04-26T13:02:26.820Z,7.05
2023-04-26T13:03:26.832Z,7.43
2023-04-26T13:04:26.830Z,7.77
2023-04-26T13:05:26.762Z,9.84
2023-04-26T13:06:26.818Z,14.36
2023-04-26T13:07:26.832Z,12.50
2023-04-26T13:08:26.873Z,10.84
2023-04-26T13:09:26.919Z,10.92
2023-04-26T13:10:26.961Z,11.79
2023-04-26T13:11:27.001Z,12.44
2023-04-26T13:12:27.023Z,12.59
2023-04-26T13:13:39.829Z,10.29
2023-04-26T13:14:28.066Z,10.33
2023-04-26T13:15:27.065Z,10.70
2023-04-26T13:16:27.095Z,12.11